sensor_id;sensor_type;location;lat;lon;timestamp;temperature;humidity
26272;DHT22;13997;48.902;12.472;2023-08-21T00:00:53;588.80;2432.00
26272;DHT22;13997;48.902;12.472;2023-08-21T00:03:18;564.10;2432.00
26272;DHT22;13997;48.902;12.472;2023-08-21T00:05:44;564.00;2432.00
26272;DHT22;13997;48.902;12.472;2023-08-21T00:08:10;564.00;2432.00
26272;DHT22;13997;48.902;12.472;2023-08-21T00:10:37;564.00;2432.00
26272;DHT22;13997;48.902;12.472;2023-08-21T00:13:03;563.90;2432.00
26272;DHT22;13997;48.902;12.472;2023-08-21T00:15:29;563.90;2432.00
26272;DHT22;13997;48.902;12.472;2023-08-21T00:17:54;563.90;2432.00
26272;DHT22;13997;48.902;12.472;2023-08-21T00:20:20;563.90;2432.00
26272;DHT22;13997;48.902;12.472;2023-08-21T00:22:46;563.90;2432.00
26272;DHT22;13997;48.902;12.472;2023-08-21T00:25:11;563.90;2432.00
26272;DHT22;13997;48.902;12.472;2023-08-21T00:27:37;563.80;2432.00
26272;DHT22;13997;48.902;12.472;2023-08-21T00:30:03;563.80;2432.00
26272;DHT22;13997;48.902;12.472;2023-08-21T00:32:28;563.80;2432.00
26272;DHT22;13997;48.902;12.472;2023-08-21T00:34:54;563.70;2432.00
26272;DHT22;13997;48.902;12.472;2023-08-21T00:37:20;563.60;2432.00
26272;DHT22;13997;48.902;12.472;2023-08-21T00:39:45;563.60;2432.00
26272;DHT22;13997;48.902;12.472;2023-08-21T00:42:11;563.60;2432.00
26272;DHT22;13997;48.902;12.472;2023-08-21T00:44:36;563.50;2432.00
26272;DHT22;13997;48.902;12.472;2023-08-21T00:47:02;563.50;2432.00
26272;DHT22;13997;48.902;12.472;2023-08-21T00:49:28;563.40;2432.00
26272;DHT22;13997;48.902;12.472;2023-08-21T00:51:54;563.40;2432.00
26272;DHT22;13997;48.902;12.472;2023-08-21T00:54:20;563.40;2432.00
26272;DHT22;13997;48.902;12.472;2023-08-21T00:56:46;563.40;2432.00
26272;DHT22;13997;48.902;12.472;2023-08-21T00:59:12;563.40;2432.00
26272;DHT22;13997;48.902;12.472;2023-08-21T01:01:38;563.30;2432.00
26272;DHT22;13997;48.902;12.472;2023-08-21T01:04:05;563.30;2432.00
26272;DHT22;13997;48.902;12.472;2023-08-21T01:06:31;563.30;2432.00
26272;DHT22;13997;48.902;12.472;2023-08-21T01:09:17;563.20;2432.00
26272;DHT22;13997;48.902;12.472;2023-08-21T01:17:08;563.20;2432.00
26272;DHT22;13997;48.902;12.472;2023-08-21T01:19:42;563.20;2432.00
26272;DHT22;13997;48.902;12.472;2023-08-21T01:22:08;563.20;2432.00
26272;DHT22;13997;48.902;12.472;2023-08-21T01:24:34;563.20;2432.00
26272;DHT22;13997;48.902;12.472;2023-08-21T01:27:00;563.20;2432.00
26272;DHT22;13997;48.902;12.472;2023-08-21T01:29:26;563.20;2432.00
26272;DHT22;13997;48.902;12.472;2023-08-21T01:34:38;538.50;2406.40
26272;DHT22;13997;48.902;12.472;2023-08-21T01:37:04;538.50;2406.40
26272;DHT22;13997;48.902;12.472;2023-08-21T01:39:31;538.50;2406.40
26272;DHT22;13997;48.902;12.472;2023-08-21T01:41:57;538.50;2406.40
26272;DHT22;13997;48.902;12.472;2023-08-21T01:44:23;538.50;2406.40
26272;DHT22;13997;48.902;12.472;2023-08-21T01:46:49;538.50;2406.40
26272;DHT22;13997;48.902;12.472;2023-08-21T01:49:15;538.50;2406.40
26272;DHT22;13997;48.902;12.472;2023-08-21T01:51:40;538.50;2406.40
26272;DHT22;13997;48.902;12.472;2023-08-21T01:54:06;538.50;2406.40
26272;DHT22;13997;48.902;12.472;2023-08-21T01:56:31;538.40;2406.40
26272;DHT22;13997;48.902;12.472;2023-08-21T01:58:57;538.50;2406.40
26272;DHT22;13997;48.902;12.472;2023-08-21T02:01:23;538.40;2406.40
26272;DHT22;13997;48.902;12.472;2023-08-21T02:03:48;538.40;2406.40
26272;DHT22;13997;48.902;12.472;2023-08-21T02:06:14;538.40;2406.40
26272;DHT22;13997;48.902;12.472;2023-08-21T02:08:40;538.50;2406.40
26272;DHT22;13997;48.902;12.472;2023-08-21T02:11:05;538.50;2406.40
26272;DHT22;13997;48.902;12.472;2023-08-21T02:13:31;538.50;2406.40
26272;DHT22;13997;48.902;12.472;2023-08-21T02:15:58;538.40;2406.40
26272;DHT22;13997;48.902;12.472;2023-08-21T02:18:24;538.40;2406.40
26272;DHT22;13997;48.902;12.472;2023-08-21T02:20:49;538.40;2406.40
26272;DHT22;13997;48.902;12.472;2023-08-21T02:23:15;538.30;2406.40
26272;DHT22;13997;48.902;12.472;2023-08-21T02:25:42;538.20;2406.40
26272;DHT22;13997;48.902;12.472;2023-08-21T02:28:07;538.20;2406.40
26272;DHT22;13997;48.902;12.472;2023-08-21T02:30:33;538.30;2406.40
26272;DHT22;13997;48.902;12.472;2023-08-21T02:32:59;538.20;2406.40
26272;DHT22;13997;48.902;12.472;2023-08-21T02:35:24;538.20;2406.40
26272;DHT22;13997;48.902;12.472;2023-08-21T02:37:50;538.20;2406.40
26272;DHT22;13997;48.902;12.472;2023-08-21T02:40:15;538.20;2406.40
26272;DHT22;13997;48.902;12.472;2023-08-21T02:42:41;538.20;2406.40
26272;DHT22;13997;48.902;12.472;2023-08-21T02:45:07;538.10;2406.40
26272;DHT22;13997;48.902;12.472;2023-08-21T02:47:39;538.10;2406.40
26272;DHT22;13997;48.902;12.472;2023-08-21T02:50:06;538.00;2406.40
26272;DHT22;13997;48.902;12.472;2023-08-21T02:52:32;537.90;2406.40
26272;DHT22;13997;48.902;12.472;2023-08-21T02:54:59;537.90;2406.40
26272;DHT22;13997;48.902;12.472;2023-08-21T02:57:25;537.90;2406.40
26272;DHT22;13997;48.902;12.472;2023-08-21T02:59:51;537.80;2406.40
26272;DHT22;13997;48.902;12.472;2023-08-21T03:02:18;537.80;2406.40
26272;DHT22;13997;48.902;12.472;2023-08-21T03:04:44;537.80;2406.40
26272;DHT22;13997;48.902;12.472;2023-08-21T03:07:10;537.80;2406.40
26272;DHT22;13997;48.902;12.472;2023-08-21T03:09:37;537.80;2406.40
26272;DHT22;13997;48.902;12.472;2023-08-21T03:12:03;537.80;2406.40
26272;DHT22;13997;48.902;12.472;2023-08-21T03:14:29;537.70;2406.40
26272;DHT22;13997;48.902;12.472;2023-08-21T03:16:54;537.70;2406.40
26272;DHT22;13997;48.902;12.472;2023-08-21T03:19:20;537.70;2406.40
26272;DHT22;13997;48.902;12.472;2023-08-21T03:21:45;537.60;2406.40
26272;DHT22;13997;48.902;12.472;2023-08-21T03:24:11;537.60;2406.40
26272;DHT22;13997;48.902;12.472;2023-08-21T03:26:37;537.60;2406.40
26272;DHT22;13997;48.902;12.472;2023-08-21T03:29:03;512.90;2380.80
26272;DHT22;13997;48.902;12.472;2023-08-21T03:31:29;512.90;2380.80
26272;DHT22;13997;48.902;12.472;2023-08-21T03:33:55;512.90;2380.80
26272;DHT22;13997;48.902;12.472;2023-08-21T03:36:20;512.90;2380.80
26272;DHT22;13997;48.902;12.472;2023-08-21T03:38:46;512.90;2380.80
26272;DHT22;13997;48.902;12.472;2023-08-21T03:41:12;512.90;2380.80
26272;DHT22;13997;48.902;12.472;2023-08-21T03:43:37;512.80;2380.80
26272;DHT22;13997;48.902;12.472;2023-08-21T03:46:03;512.80;2380.80
26272;DHT22;13997;48.902;12.472;2023-08-21T03:48:29;512.80;2380.80
26272;DHT22;13997;48.902;12.472;2023-08-21T03:50:55;512.80;2380.80
26272;DHT22;13997;48.902;12.472;2023-08-21T03:53:20;512.80;2380.80
26272;DHT22;13997;48.902;12.472;2023-08-21T03:55:46;512.70;2380.80
26272;DHT22;13997;48.902;12.472;2023-08-21T03:58:13;512.70;2380.80
26272;DHT22;13997;48.902;12.472;2023-08-21T04:00:38;512.70;2380.80
26272;DHT22;13997;48.902;12.472;2023-08-21T04:03:04;512.70;2380.80
26272;DHT22;13997;48.902;12.472;2023-08-21T04:05:29;512.70;2380.80
26272;DHT22;13997;48.902;12.472;2023-08-21T04:07:55;512.70;2380.80
26272;DHT22;13997;48.902;12.472;2023-08-21T04:10:21;512.70;2380.80
26272;DHT22;13997;48.902;12.472;2023-08-21T04:12:46;512.80;2380.80
26272;DHT22;13997;48.902;12.472;2023-08-21T04:15:12;512.80;2380.80
26272;DHT22;13997;48.902;12.472;2023-08-21T04:17:37;512.80;2380.80
26272;DHT22;13997;48.902;12.472;2023-08-21T04:20:03;512.80;2380.80
26272;DHT22;13997;48.902;12.472;2023-08-21T04:22:29;512.80;2380.80
26272;DHT22;13997;48.902;12.472;2023-08-21T04:24:54;512.70;2380.80
26272;DHT22;13997;48.902;12.472;2023-08-21T04:27:20;512.70;2380.80
26272;DHT22;13997;48.902;12.472;2023-08-21T04:29:45;512.70;2380.80
26272;DHT22;13997;48.902;12.472;2023-08-21T04:32:11;512.70;2380.80
26272;DHT22;13997;48.902;12.472;2023-08-21T04:34:37;512.70;2380.80
26272;DHT22;13997;48.902;12.472;2023-08-21T04:37:03;512.70;2380.80
26272;DHT22;13997;48.902;12.472;2023-08-21T04:39:29;512.70;2380.80
26272;DHT22;13997;48.902;12.472;2023-08-21T04:41:56;512.70;2380.80
26272;DHT22;13997;48.902;12.472;2023-08-21T04:44:22;512.70;2380.80
26272;DHT22;13997;48.902;12.472;2023-08-21T04:46:48;512.70;2380.80
26272;DHT22;13997;48.902;12.472;2023-08-21T04:49:15;512.70;2380.80
26272;DHT22;13997;48.902;12.472;2023-08-21T04:51:41;512.70;2380.80
26272;DHT22;13997;48.902;12.472;2023-08-21T04:54:06;512.70;2380.80
26272;DHT22;13997;48.902;12.472;2023-08-21T04:56:32;512.60;2380.80
26272;DHT22;13997;48.902;12.472;2023-08-21T04:58:57;512.60;2380.80
26272;DHT22;13997;48.902;12.472;2023-08-21T05:01:23;512.60;2380.80
26272;DHT22;13997;48.902;12.472;2023-08-21T05:03:50;512.60;2380.80
26272;DHT22;13997;48.902;12.472;2023-08-21T05:06:16;512.50;2380.80
26272;DHT22;13997;48.902;12.472;2023-08-21T05:08:41;512.50;2380.80
26272;DHT22;13997;48.902;12.472;2023-08-21T05:11:07;512.50;2380.80
26272;DHT22;13997;48.902;12.472;2023-08-21T05:13:33;512.50;2380.80
26272;DHT22;13997;48.902;12.472;2023-08-21T05:15:58;512.50;2380.80
26272;DHT22;13997;48.902;12.472;2023-08-21T05:18:25;512.50;2380.80
26272;DHT22;13997;48.902;12.472;2023-08-21T05:20:53;512.50;2380.80
26272;DHT22;13997;48.902;12.472;2023-08-21T05:23:19;512.50;2380.80
26272;DHT22;13997;48.902;12.472;2023-08-21T05:25:45;512.50;2380.80
26272;DHT22;13997;48.902;12.472;2023-08-21T05:28:10;512.60;2380.80
26272;DHT22;13997;48.902;12.472;2023-08-21T05:30:36;512.70;2380.80
26272;DHT22;13997;48.902;12.472;2023-08-21T05:33:02;512.70;2380.80
26272;DHT22;13997;48.902;12.472;2023-08-21T05:35:32;512.80;2380.80
26272;DHT22;13997;48.902;12.472;2023-08-21T05:37:57;512.90;2380.80
26272;DHT22;13997;48.902;12.472;2023-08-21T05:40:23;512.90;2380.80
26272;DHT22;13997;48.902;12.472;2023-08-21T05:42:48;537.70;2406.40
26272;DHT22;13997;48.902;12.472;2023-08-21T05:45:14;537.70;2406.40
26272;DHT22;13997;48.902;12.472;2023-08-21T05:47:39;537.80;2406.40
26272;DHT22;13997;48.902;12.472;2023-08-21T05:50:05;537.80;2406.40
26272;DHT22;13997;48.902;12.472;2023-08-21T05:52:31;538.00;2406.40
26272;DHT22;13997;48.902;12.472;2023-08-21T05:54:56;538.10;2406.40
26272;DHT22;13997;48.902;12.472;2023-08-21T05:57:22;538.20;2406.40
26272;DHT22;13997;48.902;12.472;2023-08-21T05:59:48;538.20;2406.40
26272;DHT22;13997;48.902;12.472;2023-08-21T06:02:14;538.40;2406.40
26272;DHT22;13997;48.902;12.472;2023-08-21T06:04:40;538.40;2406.40
26272;DHT22;13997;48.902;12.472;2023-08-21T06:07:07;538.40;2406.40
26272;DHT22;13997;48.902;12.472;2023-08-21T06:09:32;538.50;2406.40
26272;DHT22;13997;48.902;12.472;2023-08-21T06:12:00;563.20;2432.00
26272;DHT22;13997;48.902;12.472;2023-08-21T06:14:26;563.40;2432.00
26272;DHT22;13997;48.902;12.472;2023-08-21T06:17:03;563.40;2432.00
26272;DHT22;13997;48.902;12.472;2023-08-21T06:19:29;563.50;2432.00
26272;DHT22;13997;48.902;12.472;2023-08-21T06:21:55;563.70;2432.00
26272;DHT22;13997;48.902;12.472;2023-08-21T06:24:21;563.80;2432.00
26272;DHT22;13997;48.902;12.472;2023-08-21T06:26:47;563.90;2432.00
26272;DHT22;13997;48.902;12.472;2023-08-21T06:29:13;564.10;2432.00
26272;DHT22;13997;48.902;12.472;2023-08-21T06:31:42;588.80;2432.00
26272;DHT22;13997;48.902;12.472;2023-08-21T06:34:07;589.00;2432.00
26272;DHT22;13997;48.902;12.472;2023-08-21T06:36:33;589.10;2432.00
26272;DHT22;13997;48.902;12.472;2023-08-21T06:38:58;589.20;2432.00
26272;DHT22;13997;48.902;12.472;2023-08-21T06:41:24;589.40;2432.00
26272;DHT22;13997;48.902;12.472;2023-08-21T06:43:50;589.60;2432.00
26272;DHT22;13997;48.902;12.472;2023-08-21T06:46:16;614.40;2432.00
26272;DHT22;13997;48.902;12.472;2023-08-21T06:48:42;614.50;2432.00
26272;DHT22;13997;48.902;12.472;2023-08-21T06:51:09;614.60;2432.00
26272;DHT22;13997;48.902;12.472;2023-08-21T06:53:34;614.80;2432.00
26272;DHT22;13997;48.902;12.472;2023-08-21T06:56:00;615.00;2432.00
26272;DHT22;13997;48.902;12.472;2023-08-21T06:58:26;615.10;2432.00
26272;DHT22;13997;48.902;12.472;2023-08-21T07:00:53;615.20;2432.00
26272;DHT22;13997;48.902;12.472;2023-08-21T07:03:19;640.00;2432.00
26272;DHT22;13997;48.902;12.472;2023-08-21T07:06:03;640.10;2432.00
26272;DHT22;13997;48.902;12.472;2023-08-21T07:08:29;640.30;2432.00
26272;DHT22;13997;48.902;12.472;2023-08-21T07:10:54;640.50;2432.00
26272;DHT22;13997;48.902;12.472;2023-08-21T07:13:20;640.60;2432.00
26272;DHT22;13997;48.902;12.472;2023-08-21T07:15:46;640.70;2432.00
26272;DHT22;13997;48.902;12.472;2023-08-21T07:18:12;640.70;2432.00
26272;DHT22;13997;48.902;12.472;2023-08-21T07:20:38;640.80;2432.00
26272;DHT22;13997;48.902;12.472;2023-08-21T07:23:03;665.60;2432.00
26272;DHT22;13997;48.902;12.472;2023-08-21T07:25:29;665.70;2432.00
26272;DHT22;13997;48.902;12.472;2023-08-21T07:27:55;665.80;2432.00
26272;DHT22;13997;48.902;12.472;2023-08-21T07:30:21;666.10;2432.00
26272;DHT22;13997;48.902;12.472;2023-08-21T07:32:48;666.20;2432.00
26272;DHT22;13997;48.902;12.472;2023-08-21T07:35:14;666.20;2432.00
26272;DHT22;13997;48.902;12.472;2023-08-21T07:37:43;666.40;2432.00
26272;DHT22;13997;48.902;12.472;2023-08-21T07:40:09;666.50;2432.00
26272;DHT22;13997;48.902;12.472;2023-08-21T07:42:35;691.30;2432.00
26272;DHT22;13997;48.902;12.472;2023-08-21T07:45:00;691.40;2432.00
26272;DHT22;13997;48.902;12.472;2023-08-21T07:47:28;691.50;2432.00
26272;DHT22;13997;48.902;12.472;2023-08-21T07:49:55;691.70;2432.00
26272;DHT22;13997;48.902;12.472;2023-08-21T07:52:21;691.80;2432.00
26272;DHT22;13997;48.902;12.472;2023-08-21T07:54:50;691.80;2432.00
26272;DHT22;13997;48.902;12.472;2023-08-21T07:57:16;692.00;2432.00
26272;DHT22;13997;48.902;12.472;2023-08-21T07:59:43;692.10;2432.00
26272;DHT22;13997;48.902;12.472;2023-08-21T08:02:08;692.10;2432.00
26272;DHT22;13997;48.902;12.472;2023-08-21T08:04:35;716.90;2432.00
26272;DHT22;13997;48.902;12.472;2023-08-21T08:07:00;717.00;2432.00
26272;DHT22;13997;48.902;12.472;2023-08-21T08:09:26;717.10;2432.00
26272;DHT22;13997;48.902;12.472;2023-08-21T08:11:52;717.30;2432.00
26272;DHT22;13997;48.902;12.472;2023-08-21T08:14:17;717.30;2432.00
26272;DHT22;13997;48.902;12.472;2023-08-21T08:16:43;717.40;2432.00
26272;DHT22;13997;48.902;12.472;2023-08-21T08:19:09;717.40;2432.00
26272;DHT22;13997;48.902;12.472;2023-08-21T08:21:34;717.40;2432.00
26272;DHT22;13997;48.902;12.472;2023-08-21T08:24:00;717.40;2432.00
26272;DHT22;13997;48.902;12.472;2023-08-21T08:26:25;717.40;2432.00
26272;DHT22;13997;48.902;12.472;2023-08-21T08:28:51;717.50;2432.00
26272;DHT22;13997;48.902;12.472;2023-08-21T08:31:17;717.60;2432.00
26272;DHT22;13997;48.902;12.472;2023-08-21T08:33:43;717.70;2432.00
26272;DHT22;13997;48.902;12.472;2023-08-21T08:36:09;717.70;2432.00
26272;DHT22;13997;48.902;12.472;2023-08-21T08:38:34;717.70;2432.00
26272;DHT22;13997;48.902;12.472;2023-08-21T08:41:02;742.40;2432.00
26272;DHT22;13997;48.902;12.472;2023-08-21T08:43:28;717.70;2432.00
26272;DHT22;13997;48.902;12.472;2023-08-21T08:45:56;717.60;2432.00
26272;DHT22;13997;48.902;12.472;2023-08-21T08:48:24;717.50;2432.00
26272;DHT22;13997;48.902;12.472;2023-08-21T08:50:51;717.60;2432.00
26272;DHT22;13997;48.902;12.472;2023-08-21T08:53:17;742.40;2432.00
26272;DHT22;13997;48.902;12.472;2023-08-21T08:55:44;742.40;2432.00
26272;DHT22;13997;48.902;12.472;2023-08-21T08:58:10;742.50;2432.00
26272;DHT22;13997;48.902;12.472;2023-08-21T09:00:36;742.60;2432.00
26272;DHT22;13997;48.902;12.472;2023-08-21T09:03:02;742.70;2432.00
26272;DHT22;13997;48.902;12.472;2023-08-21T09:05:28;742.60;2432.00
26272;DHT22;13997;48.902;12.472;2023-08-21T09:08:10;742.80;2432.00
26272;DHT22;13997;48.902;12.472;2023-08-21T09:10:37;743.00;2432.00
26272;DHT22;13997;48.902;12.472;2023-08-21T09:13:15;743.20;2432.00
26272;DHT22;13997;48.902;12.472;2023-08-21T09:15:53;743.30;2432.00
26272;DHT22;13997;48.902;12.472;2023-08-21T09:18:19;768.00;2432.00
26272;DHT22;13997;48.902;12.472;2023-08-21T09:20:44;768.30;2432.00
26272;DHT22;13997;48.902;12.472;2023-08-21T09:23:17;768.40;2432.00
26272;DHT22;13997;48.902;12.472;2023-08-21T09:25:45;768.50;2432.00
26272;DHT22;13997;48.902;12.472;2023-08-21T09:28:13;768.60;2432.00
26272;DHT22;13997;48.902;12.472;2023-08-21T09:30:47;768.50;2432.00
26272;DHT22;13997;48.902;12.472;2023-08-21T09:33:13;768.30;2432.00
26272;DHT22;13997;48.902;12.472;2023-08-21T09:35:38;768.30;2432.00
26272;DHT22;13997;48.902;12.472;2023-08-21T09:38:07;768.30;2432.00
26272;DHT22;13997;48.902;12.472;2023-08-21T09:40:33;768.30;2432.00
26272;DHT22;13997;48.902;12.472;2023-08-21T09:42:59;768.30;2432.00
26272;DHT22;13997;48.902;12.472;2023-08-21T09:45:25;768.60;2432.00
26272;DHT22;13997;48.902;12.472;2023-08-21T09:47:52;768.80;2432.00
26272;DHT22;13997;48.902;12.472;2023-08-21T09:50:21;793.60;2432.00
26272;DHT22;13997;48.902;12.472;2023-08-21T09:52:47;793.80;2432.00
26272;DHT22;13997;48.902;12.472;2023-08-21T09:55:14;794.10;2432.00
26272;DHT22;13997;48.902;12.472;2023-08-21T09:57:40;794.10;2432.00
26272;DHT22;13997;48.902;12.472;2023-08-21T10:00:10;794.10;2432.00
26272;DHT22;13997;48.902;12.472;2023-08-21T10:02:49;794.10;2432.00
26272;DHT22;13997;48.902;12.472;2023-08-21T10:05:16;794.30;2432.00
26272;DHT22;13997;48.902;12.472;2023-08-21T10:07:44;794.40;2432.00
26272;DHT22;13997;48.902;12.472;2023-08-21T10:10:12;794.50;2432.00
26272;DHT22;13997;48.902;12.472;2023-08-21T10:12:37;819.20;2432.00
26272;DHT22;13997;48.902;12.472;2023-08-21T10:15:03;794.40;2432.00
26272;DHT22;13997;48.902;12.472;2023-08-21T10:17:30;794.40;2432.00
26272;DHT22;13997;48.902;12.472;2023-08-21T10:20:05;794.00;2432.00
26272;DHT22;13997;48.902;12.472;2023-08-21T10:22:41;794.30;2432.00
26272;DHT22;13997;48.902;12.472;2023-08-21T10:25:21;794.40;2432.00
26272;DHT22;13997;48.902;12.472;2023-08-21T10:27:53;794.40;2432.00
26272;DHT22;13997;48.902;12.472;2023-08-21T10:30:30;794.50;2432.00
26272;DHT22;13997;48.902;12.472;2023-08-21T10:32:57;794.40;2432.00
26272;DHT22;13997;48.902;12.472;2023-08-21T10:35:24;794.50;2432.00
26272;DHT22;13997;48.902;12.472;2023-08-21T10:38:15;819.30;2432.00
26272;DHT22;13997;48.902;12.472;2023-08-21T10:41:08;819.30;2432.00
26272;DHT22;13997;48.902;12.472;2023-08-21T10:43:41;819.50;2432.00
26272;DHT22;13997;48.902;12.472;2023-08-21T10:46:12;819.80;2432.00
26272;DHT22;13997;48.902;12.472;2023-08-21T10:48:38;819.90;2432.00
26272;DHT22;13997;48.902;12.472;2023-08-21T10:51:08;819.70;2432.00
26272;DHT22;13997;48.902;12.472;2023-08-21T10:53:34;819.30;2432.00
26272;DHT22;13997;48.902;12.472;2023-08-21T10:56:04;819.30;2432.00
26272;DHT22;13997;48.902;12.472;2023-08-21T10:58:41;819.50;2432.00
26272;DHT22;13997;48.902;12.472;2023-08-21T11:01:07;819.60;2432.00
26272;DHT22;13997;48.902;12.472;2023-08-21T11:03:33;819.50;2432.00
26272;DHT22;13997;48.902;12.472;2023-08-21T11:06:07;819.50;2432.00
26272;DHT22;13997;48.902;12.472;2023-08-21T11:08:33;819.80;2432.00
26272;DHT22;13997;48.902;12.472;2023-08-21T11:11:01;819.80;2432.00
26272;DHT22;13997;48.902;12.472;2023-08-21T11:13:27;820.00;2432.00
26272;DHT22;13997;48.902;12.472;2023-08-21T11:16:04;820.00;2432.00
26272;DHT22;13997;48.902;12.472;2023-08-21T11:18:33;820.10;2432.00
26272;DHT22;13997;48.902;12.472;2023-08-21T11:21:10;844.90;2432.00
26272;DHT22;13997;48.902;12.472;2023-08-21T11:23:38;845.00;2432.00
26272;DHT22;13997;48.902;12.472;2023-08-21T11:26:05;845.30;2432.00
26272;DHT22;13997;48.902;12.472;2023-08-21T11:28:31;845.40;2432.00
26272;DHT22;13997;48.902;12.472;2023-08-21T11:30:57;845.70;2432.00
26272;DHT22;13997;48.902;12.472;2023-08-21T11:33:23;870.40;2432.00
26272;DHT22;13997;48.902;12.472;2023-08-21T11:35:49;870.50;2432.00
26272;DHT22;13997;48.902;12.472;2023-08-21T11:38:26;870.70;2432.00
26272;DHT22;13997;48.902;12.472;2023-08-21T11:40:59;870.40;2432.00
26272;DHT22;13997;48.902;12.472;2023-08-21T11:43:42;845.60;2432.00
26272;DHT22;13997;48.902;12.472;2023-08-21T11:46:09;845.50;2432.00
26272;DHT22;13997;48.902;12.472;2023-08-21T11:48:37;845.60;2432.00
26272;DHT22;13997;48.902;12.472;2023-08-21T11:51:03;870.50;2432.00
26272;DHT22;13997;48.902;12.472;2023-08-21T11:53:41;870.50;2406.40
26272;DHT22;13997;48.902;12.472;2023-08-21T11:56:14;870.70;2304.00
26272;DHT22;13997;48.902;12.472;2023-08-21T11:58:41;870.70;2124.80
26272;DHT22;13997;48.902;12.472;2023-08-21T12:01:07;870.40;2150.40
26272;DHT22;13997;48.902;12.472;2023-08-21T12:03:37;870.50;1945.60
26272;DHT22;13997;48.902;12.472;2023-08-21T12:06:05;870.70;2073.60
26272;DHT22;13997;48.902;12.472;2023-08-21T12:08:31;870.50;2073.60
26272;DHT22;13997;48.902;12.472;2023-08-21T12:10:56;870.70;2073.60
26272;DHT22;13997;48.902;12.472;2023-08-21T12:13:22;870.70;2150.40
26272;DHT22;13997;48.902;12.472;2023-08-21T12:15:47;870.90;2099.20
26272;DHT22;13997;48.902;12.472;2023-08-21T12:18:13;871.10;2073.60
26272;DHT22;13997;48.902;12.472;2023-08-21T12:20:38;871.30;1894.40
26272;DHT22;13997;48.902;12.472;2023-08-21T12:23:04;871.30;1894.40
26272;DHT22;13997;48.902;12.472;2023-08-21T12:25:30;871.30;1868.80
26272;DHT22;13997;48.902;12.472;2023-08-21T12:27:57;896.10;1817.60
26272;DHT22;13997;48.902;12.472;2023-08-21T12:30:23;896.00;1766.40
26272;DHT22;13997;48.902;12.472;2023-08-21T12:32:48;896.00;1766.40
26272;DHT22;13997;48.902;12.472;2023-08-21T12:35:14;896.00;1894.40
26272;DHT22;13997;48.902;12.472;2023-08-21T12:37:39;896.10;1817.60
26272;DHT22;13997;48.902;12.472;2023-08-21T12:40:06;896.10;1715.20
26272;DHT22;13997;48.902;12.472;2023-08-21T12:42:32;871.30;1715.20
26272;DHT22;13997;48.902;12.472;2023-08-21T12:44:57;870.90;1843.20
26272;DHT22;13997;48.902;12.472;2023-08-21T12:47:23;870.90;1868.80
26272;DHT22;13997;48.902;12.472;2023-08-21T12:49:48;871.10;1894.40
26272;DHT22;13997;48.902;12.472;2023-08-21T12:52:14;871.00;1920.00
26272;DHT22;13997;48.902;12.472;2023-08-21T12:54:40;871.00;1945.60
26272;DHT22;13997;48.902;12.472;2023-08-21T12:57:05;871.10;1971.20
26272;DHT22;13997;48.902;12.472;2023-08-21T12:59:31;871.20;2022.40
26272;DHT22;13997;48.902;12.472;2023-08-21T13:01:58;871.30;2022.40
26272;DHT22;13997;48.902;12.472;2023-08-21T13:04:25;896.10;1996.80
26272;DHT22;13997;48.902;12.472;2023-08-21T13:06:51;896.30;1971.20
26272;DHT22;13997;48.902;12.472;2023-08-21T13:09:16;896.40;1843.20
26272;DHT22;13997;48.902;12.472;2023-08-21T13:11:42;896.10;1843.20
26272;DHT22;13997;48.902;12.472;2023-08-21T13:14:07;896.20;1766.40
26272;DHT22;13997;48.902;12.472;2023-08-21T13:16:33;896.10;1689.60
26272;DHT22;13997;48.902;12.472;2023-08-21T13:18:58;896.10;1740.80
26272;DHT22;13997;48.902;12.472;2023-08-21T13:21:24;896.10;1715.20
26272;DHT22;13997;48.902;12.472;2023-08-21T13:23:50;896.10;1689.60
26272;DHT22;13997;48.902;12.472;2023-08-21T13:26:15;896.10;1664.00
26272;DHT22;13997;48.902;12.472;2023-08-21T13:28:41;896.10;1740.80
26272;DHT22;13997;48.902;12.472;2023-08-21T13:31:06;896.10;1689.60
26272;DHT22;13997;48.902;12.472;2023-08-21T13:33:47;896.10;1715.20
26272;DHT22;13997;48.902;12.472;2023-08-21T13:36:14;896.10;1715.20
26272;DHT22;13997;48.902;12.472;2023-08-21T13:38:39;871.30;1664.00
26272;DHT22;13997;48.902;12.472;2023-08-21T13:41:05;871.30;1587.20
26272;DHT22;13997;48.902;12.472;2023-08-21T13:43:30;871.20;1638.40
26272;DHT22;13997;48.902;12.472;2023-08-21T13:45:56;871.30;1638.40
26272;DHT22;13997;48.902;12.472;2023-08-21T13:48:22;871.30;1587.20
26272;DHT22;13997;48.902;12.472;2023-08-21T13:50:47;871.20;1561.60
26272;DHT22;13997;48.902;12.472;2023-08-21T13:53:13;871.30;1561.60
26272;DHT22;13997;48.902;12.472;2023-08-21T13:55:38;896.10;1612.80
26272;DHT22;13997;48.902;12.472;2023-08-21T13:58:04;896.10;1561.60
26272;DHT22;13997;48.902;12.472;2023-08-21T14:00:29;896.10;1561.60
26272;DHT22;13997;48.902;12.472;2023-08-21T14:02:55;896.10;1587.20
26272;DHT22;13997;48.902;12.472;2023-08-21T14:05:20;896.10;1638.40
26272;DHT22;13997;48.902;12.472;2023-08-21T14:07:46;896.10;1536.00
26272;DHT22;13997;48.902;12.472;2023-08-21T14:10:12;896.10;1561.60
26272;DHT22;13997;48.902;12.472;2023-08-21T14:12:39;896.10;1612.80
26272;DHT22;13997;48.902;12.472;2023-08-21T14:15:05;871.30;1638.40
26272;DHT22;13997;48.902;12.472;2023-08-21T14:17:31;871.30;1638.40
26272;DHT22;13997;48.902;12.472;2023-08-21T14:19:57;871.30;1638.40
26272;DHT22;13997;48.902;12.472;2023-08-21T14:22:23;871.30;1664.00
26272;DHT22;13997;48.902;12.472;2023-08-21T14:24:48;871.30;1664.00
26272;DHT22;13997;48.902;12.472;2023-08-21T14:27:14;896.10;1664.00
26272;DHT22;13997;48.902;12.472;2023-08-21T14:29:42;896.20;1689.60
26272;DHT22;13997;48.902;12.472;2023-08-21T14:32:08;896.20;1638.40
26272;DHT22;13997;48.902;12.472;2023-08-21T14:34:35;896.10;1587.20
26272;DHT22;13997;48.902;12.472;2023-08-21T14:37:00;871.30;1638.40
26272;DHT22;13997;48.902;12.472;2023-08-21T14:39:26;871.30;1638.40
26272;DHT22;13997;48.902;12.472;2023-08-21T14:41:56;871.30;1664.00